sensor_id;sensor_type;location;lat;lon;timestamp;P1;durP1;ratioP1;P2;durP2;ratioP2
22883;SDS011;13386;24.786;110.488;2023-06-14T00:01:01;15.48;;;7.25;;
22883;SDS011;13386;24.786;110.488;2023-06-14T00:03:33;18.33;;;7.60;;
22883;SDS011;13386;24.786;110.488;2023-06-14T00:06:03;17.20;;;7.30;;
22883;SDS011;13386;24.786;110.488;2023-06-14T00:08:33;17.27;;;7.43;;
22883;SDS011;13386;24.786;110.488;2023-06-14T00:11:08;18.80;;;7.18;;
22883;SDS011;13386;24.786;110.488;2023-06-14T00:13:38;21.50;;;6.85;;
22883;SDS011;13386;24.786;110.488;2023-06-14T00:16:09;15.10;;;7.30;;
22883;SDS011;13386;24.786;110.488;2023-06-14T00:18:41;15.68;;;6.95;;
22883;SDS011;13386;24.786;110.488;2023-06-14T00:21:11;19.58;;;7.97;;
22883;SDS011;13386;24.786;110.488;2023-06-14T00:23:41;16.85;;;7.20;;
22883;SDS011;13386;24.786;110.488;2023-06-14T00:26:13;19.05;;;7.40;;
22883;SDS011;13386;24.786;110.488;2023-06-14T00:28:44;20.70;;;7.13;;
22883;SDS011;13386;24.786;110.488;2023-06-14T00:31:15;20.33;;;7.80;;
22883;SDS011;13386;24.786;110.488;2023-06-14T00:33:45;18.55;;;7.30;;
22883;SDS011;13386;24.786;110.488;2023-06-14T00:36:15;16.63;;;7.85;;
22883;SDS011;13386;24.786;110.488;2023-06-14T00:38:45;19.08;;;7.53;;
22883;SDS011;13386;24.786;110.488;2023-06-14T00:41:17;16.20;;;7.63;;
22883;SDS011;13386;24.786;110.488;2023-06-14T00:43:47;18.95;;;7.72;;
22883;SDS011;13386;24.786;110.488;2023-06-14T00:46:17;15.75;;;7.65;;
22883;SDS011;13386;24.786;110.488;2023-06-14T00:48:49;18.08;;;7.75;;
22883;SDS011;13386;24.786;110.488;2023-06-14T00:51:19;19.27;;;7.63;;
22883;SDS011;13386;24.786;110.488;2023-06-14T00:53:49;20.85;;;7.70;;
22883;SDS011;13386;24.786;110.488;2023-06-14T00:56:21;18.13;;;7.80;;
22883;SDS011;13386;24.786;110.488;2023-06-14T00:58:51;17.85;;;8.10;;
22883;SDS011;13386;24.786;110.488;2023-06-14T01:01:21;21.70;;;7.88;;
22883;SDS011;13386;24.786;110.488;2023-06-14T01:03:52;18.02;;;8.10;;
22883;SDS011;13386;24.786;110.488;2023-06-14T01:06:28;16.75;;;7.47;;
22883;SDS011;13386;24.786;110.488;2023-06-14T01:09:05;16.77;;;7.30;;
22883;SDS011;13386;24.786;110.488;2023-06-14T01:11:41;18.85;;;7.88;;
22883;SDS011;13386;24.786;110.488;2023-06-14T01:16:43;18.58;;;7.65;;
22883;SDS011;13386;24.786;110.488;2023-06-14T01:19:14;22.35;;;7.53;;
22883;SDS011;13386;24.786;110.488;2023-06-14T01:21:46;20.85;;;7.40;;
22883;SDS011;13386;24.786;110.488;2023-06-14T01:24:19;15.70;;;7.32;;
22883;SDS011;13386;24.786;110.488;2023-06-14T01:26:55;18.17;;;7.55;;
22883;SDS011;13386;24.786;110.488;2023-06-14T01:29:28;18.08;;;8.15;;
22883;SDS011;13386;24.786;110.488;2023-06-14T01:31:59;17.40;;;7.55;;
22883;SDS011;13386;24.786;110.488;2023-06-14T01:34:33;17.90;;;7.72;;
22883;SDS011;13386;24.786;110.488;2023-06-14T01:37:06;17.23;;;7.18;;
22883;SDS011;13386;24.786;110.488;2023-06-14T01:39:38;15.57;;;7.22;;
22883;SDS011;13386;24.786;110.488;2023-06-14T01:42:10;16.00;;;7.40;;
22883;SDS011;13386;24.786;110.488;2023-06-14T01:44:41;16.35;;;7.50;;
22883;SDS011;13386;24.786;110.488;2023-06-14T01:47:12;16.35;;;7.47;;
22883;SDS011;13386;24.786;110.488;2023-06-14T01:49:42;16.33;;;7.13;;
22883;SDS011;13386;24.786;110.488;2023-06-14T01:52:15;17.55;;;7.10;;
22883;SDS011;13386;24.786;110.488;2023-06-14T01:54:48;18.23;;;7.30;;
22883;SDS011;13386;24.786;110.488;2023-06-14T01:57:20;22.85;;;9.45;;
22883;SDS011;13386;24.786;110.488;2023-06-14T01:59:52;19.73;;;7.95;;
22883;SDS011;13386;24.786;110.488;2023-06-14T02:02:22;18.00;;;7.88;;
22883;SDS011;13386;24.786;110.488;2023-06-14T02:04:54;17.15;;;7.43;;
22883;SDS011;13386;24.786;110.488;2023-06-14T02:07:25;17.77;;;7.75;;
22883;SDS011;13386;24.786;110.488;2023-06-14T02:09:57;16.55;;;7.25;;
22883;SDS011;13386;24.786;110.488;2023-06-14T02:12:29;19.58;;;8.02;;
22883;SDS011;13386;24.786;110.488;2023-06-14T02:15:02;17.08;;;7.57;;
22883;SDS011;13386;24.786;110.488;2023-06-14T02:17:33;17.13;;;7.55;;
22883;SDS011;13386;24.786;110.488;2023-06-14T02:20:07;18.40;;;7.63;;
22883;SDS011;13386;24.786;110.488;2023-06-14T02:22:39;17.35;;;7.70;;
22883;SDS011;13386;24.786;110.488;2023-06-14T02:25:12;18.30;;;8.00;;
22883;SDS011;13386;24.786;110.488;2023-06-14T02:27:42;18.65;;;8.40;;
22883;SDS011;13386;24.786;110.488;2023-06-14T02:30:13;19.20;;;8.40;;
22883;SDS011;13386;24.786;110.488;2023-06-14T02:32:44;18.92;;;8.75;;
22883;SDS011;13386;24.786;110.488;2023-06-14T02:35:18;23.95;;;9.15;;
22883;SDS011;13386;24.786;110.488;2023-06-14T02:37:56;16.73;;;8.43;;
22883;SDS011;13386;24.786;110.488;2023-06-14T02:40:28;19.02;;;8.80;;
22883;SDS011;13386;24.786;110.488;2023-06-14T02:42:59;18.48;;;8.70;;
22883;SDS011;13386;24.786;110.488;2023-06-14T02:45:29;18.80;;;8.98;;
22883;SDS011;13386;24.786;110.488;2023-06-14T02:48:00;21.48;;;8.85;;
22883;SDS011;13386;24.786;110.488;2023-06-14T02:50:34;20.98;;;9.65;;
22883;SDS011;13386;24.786;110.488;2023-06-14T02:53:06;18.52;;;8.77;;
22883;SDS011;13386;24.786;110.488;2023-06-14T02:55:40;17.95;;;9.20;;
22883;SDS011;13386;24.786;110.488;2023-06-14T02:58:11;18.42;;;8.18;;
22883;SDS011;13386;24.786;110.488;2023-06-14T03:00:42;17.33;;;7.60;;
22883;SDS011;13386;24.786;110.488;2023-06-14T03:03:15;19.77;;;8.32;;
22883;SDS011;13386;24.786;110.488;2023-06-14T03:05:52;15.50;;;7.85;;
22883;SDS011;13386;24.786;110.488;2023-06-14T03:08:25;16.90;;;7.30;;
22883;SDS011;13386;24.786;110.488;2023-06-14T03:11:01;15.75;;;8.20;;
22883;SDS011;13386;24.786;110.488;2023-06-14T03:13:33;16.77;;;7.97;;
22883;SDS011;13386;24.786;110.488;2023-06-14T03:16:05;13.95;;;7.07;;
22883;SDS011;13386;24.786;110.488;2023-06-14T03:18:39;14.55;;;7.10;;
22883;SDS011;13386;24.786;110.488;2023-06-14T03:21:09;13.23;;;6.63;;
22883;SDS011;13386;24.786;110.488;2023-06-14T03:23:43;14.93;;;7.32;;
22883;SDS011;13386;24.786;110.488;2023-06-14T03:26:15;12.70;;;6.63;;
22883;SDS011;13386;24.786;110.488;2023-06-14T03:28:48;16.10;;;7.50;;
22883;SDS011;13386;24.786;110.488;2023-06-14T03:31:19;15.70;;;7.57;;
22883;SDS011;13386;24.786;110.488;2023-06-14T03:33:51;14.27;;;7.57;;
22883;SDS011;13386;24.786;110.488;2023-06-14T03:36:24;13.82;;;7.07;;
22883;SDS011;13386;24.786;110.488;2023-06-14T03:39:04;14.00;;;6.85;;
22883;SDS011;13386;24.786;110.488;2023-06-14T03:44:06;22.15;;;8.40;;
22883;SDS011;13386;24.786;110.488;2023-06-14T03:46:37;15.75;;;7.45;;
22883;SDS011;13386;24.786;110.488;2023-06-14T03:49:07;17.75;;;8.00;;
22883;SDS011;13386;24.786;110.488;2023-06-14T03:51:37;18.30;;;8.10;;
22883;SDS011;13386;24.786;110.488;2023-06-14T03:54:08;20.15;;;7.95;;
22883;SDS011;13386;24.786;110.488;2023-06-14T03:56:38;16.33;;;7.95;;
22883;SDS011;13386;24.786;110.488;2023-06-14T03:59:12;16.08;;;7.90;;
22883;SDS011;13386;24.786;110.488;2023-06-14T04:01:43;19.73;;;8.20;;
22883;SDS011;13386;24.786;110.488;2023-06-14T04:04:16;15.30;;;7.38;;
22883;SDS011;13386;24.786;110.488;2023-06-14T04:06:50;15.70;;;7.82;;
22883;SDS011;13386;24.786;110.488;2023-06-14T04:09:20;13.70;;;7.40;;
22883;SDS011;13386;24.786;110.488;2023-06-14T04:11:52;16.45;;;7.32;;
22883;SDS011;13386;24.786;110.488;2023-06-14T04:14:26;16.20;;;7.47;;
22883;SDS011;13386;24.786;110.488;2023-06-14T04:16:57;14.95;;;7.53;;
22883;SDS011;13386;24.786;110.488;2023-06-14T04:19:27;17.33;;;7.68;;
22883;SDS011;13386;24.786;110.488;2023-06-14T04:21:58;19.50;;;7.57;;
22883;SDS011;13386;24.786;110.488;2023-06-14T04:24:32;14.15;;;6.80;;
22883;SDS011;13386;24.786;110.488;2023-06-14T04:27:05;14.98;;;7.60;;
22883;SDS011;13386;24.786;110.488;2023-06-14T04:29:40;18.50;;;7.32;;
22883;SDS011;13386;24.786;110.488;2023-06-14T04:32:14;15.07;;;6.95;;
22883;SDS011;13386;24.786;110.488;2023-06-14T04:34:45;17.15;;;7.55;;
22883;SDS011;13386;24.786;110.488;2023-06-14T04:37:15;15.02;;;7.30;;
22883;SDS011;13386;24.786;110.488;2023-06-14T04:39:46;14.38;;;7.00;;
22883;SDS011;13386;24.786;110.488;2023-06-14T04:42:18;14.38;;;7.65;;
22883;SDS011;13386;24.786;110.488;2023-06-14T04:45:00;16.30;;;7.75;;
22883;SDS011;13386;24.786;110.488;2023-06-14T04:47:31;17.00;;;7.55;;
22883;SDS011;13386;24.786;110.488;2023-06-14T04:50:01;15.05;;;7.80;;
22883;SDS011;13386;24.786;110.488;2023-06-14T04:52:32;15.70;;;7.55;;
22883;SDS011;13386;24.786;110.488;2023-06-14T04:55:08;19.58;;;7.80;;
22883;SDS011;13386;24.786;110.488;2023-06-14T04:57:41;14.57;;;7.47;;
22883;SDS011;13386;24.786;110.488;2023-06-14T05:00:13;18.17;;;7.22;;
22883;SDS011;13386;24.786;110.488;2023-06-14T05:02:44;14.15;;;7.15;;
22883;SDS011;13386;24.786;110.488;2023-06-14T05:05:18;16.02;;;7.55;;
22883;SDS011;13386;24.786;110.488;2023-06-14T05:07:49;15.75;;;7.57;;
22883;SDS011;13386;24.786;110.488;2023-06-14T05:10:20;15.07;;;6.88;;
22883;SDS011;13386;24.786;110.488;2023-06-14T05:12:51;15.55;;;7.28;;
22883;SDS011;13386;24.786;110.488;2023-06-14T05:15:29;15.48;;;7.35;;
22883;SDS011;13386;24.786;110.488;2023-06-14T05:18:00;16.77;;;6.93;;
22883;SDS011;13386;24.786;110.488;2023-06-14T05:20:33;15.50;;;6.95;;
22883;SDS011;13386;24.786;110.488;2023-06-14T05:23:04;15.43;;;6.47;;
22883;SDS011;13386;24.786;110.488;2023-06-14T05:25:35;14.43;;;6.68;;
22883;SDS011;13386;24.786;110.488;2023-06-14T05:28:07;13.85;;;6.93;;
22883;SDS011;13386;24.786;110.488;2023-06-14T05:30:40;18.70;;;6.70;;
22883;SDS011;13386;24.786;110.488;2023-06-14T05:33:13;14.60;;;6.82;;
22883;SDS011;13386;24.786;110.488;2023-06-14T05:35:46;13.80;;;6.78;;
22883;SDS011;13386;24.786;110.488;2023-06-14T05:38:17;16.58;;;6.65;;
22883;SDS011;13386;24.786;110.488;2023-06-14T05:40:49;15.30;;;6.53;;
22883;SDS011;13386;24.786;110.488;2023-06-14T05:43:23;15.13;;;7.15;;
22883;SDS011;13386;24.786;110.488;2023-06-14T05:45:55;13.88;;;6.55;;
22883;SDS011;13386;24.786;110.488;2023-06-14T05:48:26;11.75;;;6.15;;
22883;SDS011;13386;24.786;110.488;2023-06-14T05:50:56;14.70;;;6.93;;
22883;SDS011;13386;24.786;110.488;2023-06-14T05:53:27;13.98;;;6.70;;
22883;SDS011;13386;24.786;110.488;2023-06-14T05:55:57;14.57;;;6.78;;
22883;SDS011;13386;24.786;110.488;2023-06-14T05:58:31;14.13;;;6.63;;
22883;SDS011;13386;24.786;110.488;2023-06-14T06:01:05;17.02;;;6.97;;
22883;SDS011;13386;24.786;110.488;2023-06-14T06:03:35;13.48;;;6.50;;
22883;SDS011;13386;24.786;110.488;2023-06-14T06:06:05;13.77;;;6.60;;
22883;SDS011;13386;24.786;110.488;2023-06-14T06:08:38;13.85;;;7.03;;
22883;SDS011;13386;24.786;110.488;2023-06-14T06:11:08;13.45;;;6.38;;
22883;SDS011;13386;24.786;110.488;2023-06-14T06:13:39;12.20;;;6.20;;
22883;SDS011;13386;24.786;110.488;2023-06-14T06:16:14;11.65;;;6.00;;
22883;SDS011;13386;24.786;110.488;2023-06-14T06:18:50;13.95;;;6.32;;
22883;SDS011;13386;24.786;110.488;2023-06-14T06:21:21;13.50;;;6.18;;
22883;SDS011;13386;24.786;110.488;2023-06-14T06:23:51;14.15;;;6.45;;
22883;SDS011;13386;24.786;110.488;2023-06-14T06:26:24;13.30;;;6.13;;
22883;SDS011;13386;24.786;110.488;2023-06-14T06:28:55;14.60;;;6.25;;
22883;SDS011;13386;24.786;110.488;2023-06-14T06:31:27;12.73;;;5.88;;
22883;SDS011;13386;24.786;110.488;2023-06-14T06:34:04;16.35;;;6.28;;
22883;SDS011;13386;24.786;110.488;2023-06-14T06:36:38;13.63;;;5.55;;
22883;SDS011;13386;24.786;110.488;2023-06-14T06:39:13;12.82;;;5.70;;
22883;SDS011;13386;24.786;110.488;2023-06-14T06:41:43;13.48;;;5.72;;
22883;SDS011;13386;24.786;110.488;2023-06-14T06:44:18;11.48;;;5.78;;
22883;SDS011;13386;24.786;110.488;2023-06-14T06:46:52;13.63;;;5.88;;
22883;SDS011;13386;24.786;110.488;2023-06-14T06:49:23;13.27;;;6.05;;
22883;SDS011;13386;24.786;110.488;2023-06-14T06:52:00;14.55;;;6.30;;
22883;SDS011;13386;24.786;110.488;2023-06-14T06:54:33;14.38;;;6.18;;
22883;SDS011;13386;24.786;110.488;2023-06-14T06:57:04;12.18;;;6.18;;
22883;SDS011;13386;24.786;110.488;2023-06-14T06:59:34;15.75;;;6.07;;
22883;SDS011;13386;24.786;110.488;2023-06-14T07:02:06;13.70;;;5.80;;
22883;SDS011;13386;24.786;110.488;2023-06-14T07:07:09;15.05;;;6.40;;
22883;SDS011;13386;24.786;110.488;2023-06-14T07:09:42;10.52;;;5.47;;
22883;SDS011;13386;24.786;110.488;2023-06-14T07:12:16;14.27;;;5.93;;
22883;SDS011;13386;24.786;110.488;2023-06-14T07:14:49;11.88;;;5.40;;
22883;SDS011;13386;24.786;110.488;2023-06-14T07:17:21;10.95;;;5.95;;
22883;SDS011;13386;24.786;110.488;2023-06-14T07:19:54;12.57;;;6.38;;
22883;SDS011;13386;24.786;110.488;2023-06-14T07:22:24;13.77;;;6.25;;
22883;SDS011;13386;24.786;110.488;2023-06-14T07:24:56;14.13;;;6.43;;
22883;SDS011;13386;24.786;110.488;2023-06-14T07:27:26;11.05;;;5.65;;
22883;SDS011;13386;24.786;110.488;2023-06-14T07:29:56;12.80;;;6.00;;
22883;SDS011;13386;24.786;110.488;2023-06-14T07:32:28;12.70;;;5.82;;
22883;SDS011;13386;24.786;110.488;2023-06-14T07:34:58;13.63;;;6.10;;
22883;SDS011;13386;24.786;110.488;2023-06-14T07:37:28;11.55;;;5.70;;
22883;SDS011;13386;24.786;110.488;2023-06-14T07:39:58;11.75;;;5.45;;
22883;SDS011;13386;24.786;110.488;2023-06-14T07:42:31;11.70;;;5.72;;
22883;SDS011;13386;24.786;110.488;2023-06-14T07:45:01;14.90;;;5.72;;
22883;SDS011;13386;24.786;110.488;2023-06-14T07:47:36;13.50;;;5.90;;
22883;SDS011;13386;24.786;110.488;2023-06-14T07:50:06;10.13;;;5.72;;
22883;SDS011;13386;24.786;110.488;2023-06-14T07:52:38;11.60;;;5.47;;
22883;SDS011;13386;24.786;110.488;2023-06-14T07:55:10;11.95;;;5.38;;
22883;SDS011;13386;24.786;110.488;2023-06-14T07:57:42;12.10;;;6.15;;
22883;SDS011;13386;24.786;110.488;2023-06-14T08:00:13;13.45;;;5.90;;
22883;SDS011;13386;24.786;110.488;2023-06-14T08:02:49;12.63;;;5.68;;
22883;SDS011;13386;24.786;110.488;2023-06-14T08:05:25;11.88;;;6.15;;
22883;SDS011;13386;24.786;110.488;2023-06-14T08:07:58;12.77;;;5.93;;
22883;SDS011;13386;24.786;110.488;2023-06-14T08:10:30;10.73;;;5.50;;
22883;SDS011;13386;24.786;110.488;2023-06-14T08:15:35;10.18;;;5.15;;
22883;SDS011;13386;24.786;110.488;2023-06-14T08:18:12;11.48;;;5.38;;
22883;SDS011;13386;24.786;110.488;2023-06-14T08:20:42;11.00;;;5.40;;
22883;SDS011;13386;24.786;110.488;2023-06-14T08:23:14;14.55;;;4.80;;
22883;SDS011;13386;24.786;110.488;2023-06-14T08:25:49;12.15;;;5.50;;
22883;SDS011;13386;24.786;110.488;2023-06-14T08:28:26;9.52;;;4.85;;
22883;SDS011;13386;24.786;110.488;2023-06-14T08:30:58;10.02;;;4.82;;
22883;SDS011;13386;24.786;110.488;2023-06-14T08:33:34;10.32;;;4.65;;
22883;SDS011;13386;24.786;110.488;2023-06-14T08:36:08;8.88;;;4.72;;
22883;SDS011;13386;24.786;110.488;2023-06-14T08:38:39;8.48;;;4.70;;
22883;SDS011;13386;24.786;110.488;2023-06-14T08:41:10;8.55;;;4.25;;
22883;SDS011;13386;24.786;110.488;2023-06-14T08:43:42;8.73;;;4.43;;
22883;SDS011;13386;24.786;110.488;2023-06-14T08:46:13;10.25;;;4.95;;
22883;SDS011;13386;24.786;110.488;2023-06-14T08:48:49;9.20;;;4.55;;
22883;SDS011;13386;24.786;110.488;2023-06-14T08:51:39;7.75;;;4.25;;
22883;SDS011;13386;24.786;110.488;2023-06-14T08:54:10;8.75;;;4.78;;
22883;SDS011;13386;24.786;110.488;2023-06-14T08:56:41;8.38;;;4.40;;
22883;SDS011;13386;24.786;110.488;2023-06-14T08:59:12;10.23;;;4.47;;
22883;SDS011;13386;24.786;110.488;2023-06-14T09:01:43;9.75;;;4.88;;
22883;SDS011;13386;24.786;110.488;2023-06-14T09:04:22;10.07;;;5.40;;
22883;SDS011;13386;24.786;110.488;2023-06-14T09:06:56;10.75;;;4.95;;
22883;SDS011;13386;24.786;110.488;2023-06-14T09:09:26;9.07;;;5.18;;
22883;SDS011;13386;24.786;110.488;2023-06-14T09:11:56;10.57;;;5.03;;
22883;SDS011;13386;24.786;110.488;2023-06-14T09:14:27;9.98;;;4.68;;
22883;SDS011;13386;24.786;110.488;2023-06-14T09:17:02;8.10;;;4.53;;
22883;SDS011;13386;24.786;110.488;2023-06-14T09:19:35;10.82;;;4.95;;
22883;SDS011;13386;24.786;110.488;2023-06-14T09:22:05;11.38;;;5.25;;
22883;SDS011;13386;24.786;110.488;2023-06-14T09:24:38;11.57;;;4.72;;
22883;SDS011;13386;24.786;110.488;2023-06-14T09:27:08;9.48;;;4.55;;
22883;SDS011;13386;24.786;110.488;2023-06-14T09:29:45;11.95;;;4.60;;
22883;SDS011;13386;24.786;110.488;2023-06-14T09:32:15;10.45;;;4.85;;
22883;SDS011;13386;24.786;110.488;2023-06-14T09:34:48;9.90;;;4.50;;
22883;SDS011;13386;24.786;110.488;2023-06-14T09:40:08;10.05;;;4.88;;
22883;SDS011;13386;24.786;110.488;2023-06-14T09:42:38;12.73;;;4.75;;
22883;SDS011;13386;24.786;110.488;2023-06-14T09:45:11;9.52;;;3.97;;
22883;SDS011;13386;24.786;110.488;2023-06-14T09:47:49;10.18;;;4.60;;
22883;SDS011;13386;24.786;110.488;2023-06-14T09:50:21;11.18;;;4.78;;
22883;SDS011;13386;24.786;110.488;2023-06-14T09:52:52;10.32;;;4.28;;
22883;SDS011;13386;24.786;110.488;2023-06-14T09:55:22;11.85;;;5.07;;
22883;SDS011;13386;24.786;110.488;2023-06-14T09:57:54;10.30;;;4.75;;
22883;SDS011;13386;24.786;110.488;2023-06-14T10:00:25;13.18;;;4.75;;
22883;SDS011;13386;24.786;110.488;2023-06-14T10:02:59;13.10;;;4.50;;
22883;SDS011;13386;24.786;110.488;2023-06-14T10:05:32;10.45;;;4.80;;
22883;SDS011;13386;24.786;110.488;2023-06-14T10:08:04;10.18;;;5.03;;
22883;SDS011;13386;24.786;110.488;2023-06-14T10:10:34;13.23;;;5.65;;
22883;SDS011;13386;24.786;110.488;2023-06-14T10:13:04;12.50;;;5.30;;
22883;SDS011;13386;24.786;110.488;2023-06-14T10:15:37;10.82;;;4.85;;
22883;SDS011;13386;24.786;110.488;2023-06-14T10:18:09;13.13;;;5.13;;
22883;SDS011;13386;24.786;110.488;2023-06-14T10:20:45;15.68;;;5.60;;
22883;SDS011;13386;24.786;110.488;2023-06-14T10:23:20;15.40;;;4.90;;
22883;SDS011;13386;24.786;110.488;2023-06-14T10:25:54;14.43;;;5.88;;
22883;SDS011;13386;24.786;110.488;2023-06-14T10:28:27;11.63;;;5.38;;
22883;SDS011;13386;24.786;110.488;2023-06-14T10:31:07;9.15;;;4.78;;
22883;SDS011;13386;24.786;110.488;2023-06-14T10:33:40;11.90;;;4.93;;
22883;SDS011;13386;24.786;110.488;2023-06-14T10:36:27;11.07;;;4.85;;
22883;SDS011;13386;24.786;110.488;2023-06-14T10:39:04;10.32;;;4.30;;
22883;SDS011;13386;24.786;110.488;2023-06-14T10:41:39;10.25;;;4.97;;
22883;SDS011;13386;24.786;110.488;2023-06-14T10:46:58;11.18;;;4.85;;
22883;SDS011;13386;24.786;110.488;2023-06-14T10:52:05;13.32;;;5.25;;
22883;SDS011;13386;24.786;110.488;2023-06-14T10:54:36;14.43;;;5.57;;
22883;SDS011;13386;24.786;110.488;2023-06-14T10:57:07;11.80;;;5.57;;
22883;SDS011;13386;24.786;110.488;2023-06-14T10:59:39;11.52;;;6.13;;
22883;SDS011;13386;24.786;110.488;2023-06-14T11:02:14;12.32;;;5.72;;
22883;SDS011;13386;24.786;110.488;2023-06-14T11:04:50;14.13;;;6.05;;
22883;SDS011;13386;24.786;110.488;2023-06-14T11:07:35;13.52;;;6.20;;
22883;SDS011;13386;24.786;110.488;2023-06-14T11:10:15;11.60;;;5.22;;
22883;SDS011;13386;24.786;110.488;2023-06-14T11:12:49;12.25;;;5.30;;
22883;SDS011;13386;24.786;110.488;2023-06-14T11:15:22;13.45;;;5.65;;
22883;SDS011;13386;24.786;110.488;2023-06-14T11:18:00;14.00;;;5.30;;
22883;SDS011;13386;24.786;110.488;2023-06-14T11:20:30;12.85;;;5.53;;
22883;SDS011;13386;24.786;110.488;2023-06-14T11:23:03;12.10;;;5.53;;
22883;SDS011;13386;24.786;110.488;2023-06-14T11:25:33;12.38;;;5.45;;
22883;SDS011;13386;24.786;110.488;2023-06-14T11:28:04;19.30;;;5.97;;
22883;SDS011;13386;24.786;110.488;2023-06-14T11:30:34;11.25;;;5.28;;
22883;SDS011;13386;24.786;110.488;2023-06-14T11:33:18;13.68;;;5.43;;
22883;SDS011;13386;24.786;110.488;2023-06-14T11:35:48;16.63;;;5.50;;
22883;SDS011;13386;24.786;110.488;2023-06-14T11:38:20;13.20;;;6.07;;
22883;SDS011;13386;24.786;110.488;2023-06-14T11:40:58;12.27;;;5.80;;
22883;SDS011;13386;24.786;110.488;2023-06-14T11:43:30;13.55;;;5.57;;
22883;SDS011;13386;24.786;110.488;2023-06-14T11:46:03;11.60;;;4.90;;
22883;SDS011;13386;24.786;110.488;2023-06-14T11:48:37;14.35;;;5.80;;
22883;SDS011;13386;24.786;110.488;2023-06-14T11:51:07;13.23;;;5.70;;
22883;SDS011;13386;24.786;110.488;2023-06-14T11:53:40;12.45;;;5.65;;
22883;SDS011;13386;24.786;110.488;2023-06-14T11:56:13;12.63;;;6.03;;
22883;SDS011;13386;24.786;110.488;2023-06-14T11:58:43;13.32;;;5.43;;
22883;SDS011;13386;24.786;110.488;2023-06-14T12:01:17;15.55;;;6.53;;
22883;SDS011;13386;24.786;110.488;2023-06-14T12:03:56;21.95;;;6.32;;
22883;SDS011;13386;24.786;110.488;2023-06-14T12:06:28;17.02;;;6.90;;
22883;SDS011;13386;24.786;110.488;2023-06-14T12:09:02;22.67;;;6.68;;
22883;SDS011;13386;24.786;110.488;2023-06-14T12:11:36;15.45;;;6.10;;
22883;SDS011;13386;24.786;110.488;2023-06-14T12:14:08;16.00;;;6.40;;
22883;SDS011;13386;24.786;110.488;2023-06-14T12:16:38;15.57;;;6.50;;
22883;SDS011;13386;24.786;110.488;2023-06-14T12:19:11;12.30;;;6.13;;
22883;SDS011;13386;24.786;110.488;2023-06-14T12:21:46;17.58;;;6.25;;
22883;SDS011;13386;24.786;110.488;2023-06-14T12:24:20;13.00;;;6.25;;
22883;SDS011;13386;24.786;110.488;2023-06-14T12:26:54;17.00;;;6.13;;
22883;SDS011;13386;24.786;110.488;2023-06-14T12:29:24;15.07;;;6.47;;
22883;SDS011;13386;24.786;110.488;2023-06-14T12:31:55;13.77;;;6.30;;
22883;SDS011;13386;24.786;110.488;2023-06-14T12:34:25;17.15;;;6.57;;
22883;SDS011;13386;24.786;110.488;2023-06-14T12:36:56;15.75;;;5.95;;
22883;SDS011;13386;24.786;110.488;2023-06-14T12:39:28;17.05;;;6.15;;
22883;SDS011;13386;24.786;110.488;2023-06-14T12:42:00;15.38;;;6.05;;
22883;SDS011;13386;24.786;110.488;2023-06-14T12:44:31;15.02;;;6.72;;
22883;SDS011;13386;24.786;110.488;2023-06-14T12:47:08;13.02;;;6.38;;
22883;SDS011;13386;24.786;110.488;2023-06-14T12:49:41;16.33;;;6.20;;
22883;SDS011;13386;24.786;110.488;2023-06-14T12:52:12;16.13;;;6.55;;
22883;SDS011;13386;24.786;110.488;2023-06-14T12:54:45;13.35;;;6.18;;
22883;SDS011;13386;24.786;110.488;2023-06-14T12:57:15;16.50;;;6.38;;
22883;SDS011;13386;24.786;110.488;2023-06-14T12:59:48;13.73;;;6.40;;
22883;SDS011;13386;24.786;110.488;2023-06-14T13:02:20;13.30;;;6.82;;
22883;SDS011;13386;24.786;110.488;2023-06-14T13:04:55;13.68;;;6.75;;
22883;SDS011;13386;24.786;110.488;2023-06-14T13:07:27;13.57;;;6.32;;
22883;SDS011;13386;24.786;110.488;2023-06-14T13:09:59;14.00;;;6.47;;
22883;SDS011;13386;24.786;110.488;2023-06-14T13:12:31;16.35;;;6.43;;
22883;SDS011;13386;24.786;110.488;2023-06-14T13:15:02;14.75;;;6.57;;
22883;SDS011;13386;24.786;110.488;2023-06-14T13:17:33;17.20;;;6.38;;
22883;SDS011;13386;24.786;110.488;2023-06-14T13:20:10;17.45;;;6.93;;
22883;SDS011;13386;24.786;110.488;2023-06-14T13:22:40;15.32;;;6.53;;
22883;SDS011;13386;24.786;110.488;2023-06-14T13:25:13;16.65;;;6.30;;
22883;SDS011;13386;24.786;110.488;2023-06-14T13:27:43;15.45;;;6.47;;
22883;SDS011;13386;24.786;110.488;2023-06-14T13:30:14;16.48;;;6.68;;
22883;SDS011;13386;24.786;110.488;2023-06-14T13:32:47;18.50;;;6.65;;
22883;SDS011;13386;24.786;110.488;2023-06-14T13:35:23;15.18;;;6.28;;
22883;SDS011;13386;24.786;110.488;2023-06-14T13:37:56;15.30;;;6.70;;
22883;SDS011;13386;24.786;110.488;2023-06-14T13:40:33;17.92;;;7.20;;
22883;SDS011;13386;24.786;110.488;2023-06-14T13:43:04;19.10;;;7.50;;
22883;SDS011;13386;24.786;110.488;2023-06-14T13:45:34;13.50;;;6.93;;
22883;SDS011;13386;24.786;110.488;2023-06-14T13:48:06;16.02;;;7.40;;
22883;SDS011;13386;24.786;110.488;2023-06-14T13:50:59;19.70;;;7.15;;
22883;SDS011;13386;24.786;110.488;2023-06-14T13:53:31;19.10;;;7.67;;
22883;SDS011;13386;24.786;110.488;2023-06-14T13:56:05;18.80;;;7.57;;
22883;SDS011;13386;24.786;110.488;2023-06-14T13:58:37;16.77;;;7.03;;
22883;SDS011;13386;24.786;110.488;2023-06-14T14:01:07;19.63;;;7.53;;
22883;SDS011;13386;24.786;110.488;2023-06-14T14:03:40;17.83;;;7.28;;
22883;SDS011;13386;24.786;110.488;2023-06-14T14:06:16;16.75;;;7.05;;
22883;SDS011;13386;24.786;110.488;2023-06-14T14:08:49;19.98;;;6.95;;
22883;SDS011;13386;24.786;110.488;2023-06-14T14:11:23;20.13;;;7.53;;
22883;SDS011;13386;24.786;110.488;2023-06-14T14:13:57;17.13;;;7.57;;
22883;SDS011;13386;24.786;110.488;2023-06-14T14:16:28;19.15;;;7.80;;
22883;SDS011;13386;24.786;110.488;2023-06-14T14:19:02;18.92;;;7.63;;
22883;SDS011;13386;24.786;110.488;2023-06-14T14:21:37;19.67;;;8.23;;
22883;SDS011;13386;24.786;110.488;2023-06-14T14:24:08;22.42;;;8.90;;
22883;SDS011;13386;24.786;110.488;2023-06-14T14:26:46;23.85;;;8.80;;
22883;SDS011;13386;24.786;110.488;2023-06-14T14:29:18;23.25;;;9.50;;
22883;SDS011;13386;24.786;110.488;2023-06-14T14:31:51;21.83;;;9.30;;
22883;SDS011;13386;24.786;110.488;2023-06-14T14:34:25;20.05;;;8.52;;
22883;SDS011;13386;24.786;110.488;2023-06-14T14:36:58;20.80;;;8.82;;
22883;SDS011;13386;24.786;110.488;2023-06-14T14:39:29;19.55;;;8.55;;
22883;SDS011;13386;24.786;110.488;2023-06-14T14:42:05;19.52;;;8.57;;
22883;SDS011;13386;24.786;110.488;2023-06-14T14:44:40;17.65;;;7.55;;
22883;SDS011;13386;24.786;110.488;2023-06-14T14:47:12;18.30;;;8.05;;
22883;SDS011;13386;24.786;110.488;2023-06-14T14:49:44;16.25;;;8.07;;
22883;SDS011;13386;24.786;110.488;2023-06-14T14:52:15;16.70;;;7.97;;
22883;SDS011;13386;24.786;110.488;2023-06-14T14:54:50;23.67;;;8.60;;
22883;SDS011;13386;24.786;110.488;2023-06-14T14:57:24;19.17;;;8.20;;